Time;durP1;ratioP1;P1;durP2;ratioP2;P2;SDS_P1;SDS_P2;PMS_P1;PMS_P2;Temp;Humidity;BMP_temperature;BMP_pressure;BME280_temperature;BME280_humidity;BME280_pressure;Samples;Min_cycle;Max_cycle;Signal;HPM_P1;HPM_P2
2023/03/09 00:02:09;;;;;;;0.10;0.10;;;;;;;3.34;72.66;99298.16;5121433;28;20537;-85
2023/03/09 00:04:35;;;;;;;0.10;0.10;;;;;;;3.37;72.29;99298.13;5124494;28;20027;-85
2023/03/09 00:07:02;;;;;;;0.85;0.85;;;;;;;3.36;72.42;99301.63;5120617;28;20046;-85
2023/03/09 00:09:28;;;;;;;0.10;0.10;;;;;;;3.39;72.57;99306.81;5113179;27;20096;-85
2023/03/09 00:11:54;;;;;;;0.20;0.20;;;;;;;3.36;72.28;99317.34;5120395;27;20038;-85
2023/03/09 00:14:22;;;;;;;0.38;0.38;;;;;;;3.36;72.39;99312.94;5121598;28;20080;-85
2023/03/09 00:16:48;;;;;;;0.10;0.10;;;;;;;3.39;72.44;99298.97;5125439;28;20045;-85
2023/03/09 00:19:20;;;;;;;0.75;0.75;;;;;;;3.36;72.76;99304.25;5120418;28;20031;-84
2023/03/09 00:21:51;;;;;;;0.30;0.30;;;;;;;3.39;72.73;99327.78;5128361;28;20041;-85
2023/03/09 00:24:20;;;;;;;0.20;0.20;;;;;;;3.38;72.54;99320.81;5126874;27;20042;-85
2023/03/09 00:26:50;;;;;;;0.10;0.10;;;;;;;3.39;72.62;99317.31;5124219;28;20019;-83
2023/03/09 00:29:16;;;;;;;0.20;0.20;;;;;;;3.40;72.31;99314.66;5111382;28;20035;-84
2023/03/09 00:31:43;;;;;;;0.17;0.17;;;;;;;3.35;72.43;99315.59;5116674;28;20024;-85
2023/03/09 00:34:10;;;;;;;0.30;0.30;;;;;;;3.36;72.13;99333.03;5117967;28;20043;-84
2023/03/09 00:36:37;;;;;;;0.20;0.20;;;;;;;3.38;72.39;99339.13;5103831;28;20035;-84
2023/03/09 00:39:04;;;;;;;0.20;0.20;;;;;;;3.41;72.26;99349.53;5106571;28;20034;-84
2023/03/09 00:41:31;;;;;;;0.10;0.10;;;;;;;3.43;72.32;99355.63;5107162;28;20053;-84
2023/03/09 00:44:00;;;;;;;1.15;1.13;;;;;;;3.50;72.92;99365.13;5104013;27;20048;-84
2023/03/09 00:46:26;;;;;;;0.20;0.20;;;;;;;3.50;72.83;99356.41;5108070;28;20339;-84
2023/03/09 00:48:53;;;;;;;0.52;0.52;;;;;;;3.52;72.39;99352.00;5105350;27;20078;-84
2023/03/09 00:51:19;;;;;;;1.02;0.75;;;;;;;3.50;72.58;99338.94;5107772;28;20043;-84
2023/03/09 00:53:45;;;;;;;0.50;0.50;;;;;;;3.51;72.27;99332.78;5111799;28;20048;-85
2023/03/09 00:56:16;;;;;;;0.20;0.20;;;;;;;3.54;72.25;99350.25;5111399;28;20019;-86
2023/03/09 00:58:43;;;;;;;0.73;0.73;;;;;;;3.55;72.47;99370.28;5114391;27;20055;-85
2023/03/09 01:01:10;;;;;;;0.30;0.30;;;;;;;3.55;72.32;99360.69;5120031;28;20028;-85
2023/03/09 01:03:37;;;;;;;0.20;0.20;;;;;;;3.59;72.42;99364.13;5121382;28;20051;-85
2023/03/09 01:06:04;;;;;;;0.20;0.20;;;;;;;3.59;72.52;99355.38;5122194;27;20027;-84
2023/03/09 01:08:31;;;;;;;2.97;1.05;;;;;;;3.61;72.79;99353.63;5114022;27;20031;-85
2023/03/09 01:10:58;;;;;;;0.38;0.38;;;;;;;3.63;72.67;99346.63;5105565;27;20042;-86
2023/03/09 01:13:24;;;;;;;0.20;0.20;;;;;;;3.65;72.76;99348.31;5111681;27;20048;-85
2023/03/09 01:15:50;;;;;;;0.20;0.20;;;;;;;3.67;72.73;99359.63;5116254;27;20502;-84
2023/03/09 01:18:17;;;;;;;0.50;0.50;;;;;;;3.68;72.25;99368.34;5115854;27;20028;-85
2023/03/09 01:20:43;;;;;;;0.20;0.20;;;;;;;3.69;72.48;99388.44;5114315;28;20020;-85
2023/03/09 01:23:09;;;;;;;0.20;0.20;;;;;;;3.71;72.79;99384.00;5102262;28;20131;-85
2023/03/09 01:25:35;;;;;;;0.20;0.20;;;;;;;3.72;72.46;99385.75;5114081;27;20399;-85
2023/03/09 01:28:02;;;;;;;0.73;0.73;;;;;;;3.71;72.26;99397.09;5116004;27;20043;-85
2023/03/09 01:30:28;;;;;;;0.10;0.10;;;;;;;3.71;72.70;99415.44;5115779;28;20077;-84
2023/03/09 01:32:54;;;;;;;0.20;0.20;;;;;;;3.70;72.23;99411.97;5103957;28;20055;-84
2023/03/09 01:35:20;;;;;;;0.20;0.20;;;;;;;3.71;71.94;99402.34;5113097;28;20031;-84
2023/03/09 01:37:46;;;;;;;0.10;0.10;;;;;;;3.72;71.95;99399.69;5116354;28;20031;-84
2023/03/09 01:40:24;;;;;;;0.20;0.20;;;;;;;3.77;72.07;99390.94;5111023;28;20670;-84
2023/03/09 01:42:59;;;;;;;0.20;0.20;;;;;;;3.72;71.86;99388.38;5113732;28;20043;-85
2023/03/09 01:48:01;;;;;;;0.65;0.65;;;;;;;3.65;71.83;99389.34;5094334;27;20405;-85
2023/03/09 01:50:32;;;;;;;0.60;0.60;;;;;;;3.65;71.91;99391.97;5094463;28;20114;-85
2023/03/09 01:53:04;;;;;;;0.30;0.30;;;;;;;3.65;71.82;99386.72;5097751;28;20047;-85
2023/03/09 01:55:36;;;;;;;0.10;0.10;;;;;;;3.65;71.94;99399.81;5093731;28;20086;-84
2023/03/09 01:58:08;;;;;;;0.25;0.25;;;;;;;3.66;72.32;99415.50;5095929;28;20028;-84
2023/03/09 02:00:35;;;;;;;0.20;0.20;;;;;;;3.68;72.21;99428.59;5097063;28;20036;-85
2023/03/09 02:03:09;;;;;;;0.17;0.17;;;;;;;3.71;71.93;99423.31;5100347;28;20035;-84
2023/03/09 02:05:51;;;;;;;0.57;0.57;;;;;;;3.75;72.31;99425.00;5094070;28;20039;-84
2023/03/09 02:08:20;;;;;;;0.20;0.20;;;;;;;3.72;72.03;99425.03;5094799;28;20044;-84
2023/03/09 02:10:54;;;;;;;0.90;0.90;;;;;;;3.75;72.06;99422.41;5095652;28;20024;-84
2023/03/09 02:13:25;;;;;;;0.10;0.10;;;;;;;3.76;71.69;99426.72;5100150;28;20137;-85
2023/03/09 02:15:51;;;;;;;0.15;0.15;;;;;;;3.78;72.26;99424.94;5091459;28;20028;-84
2023/03/09 02:18:18;;;;;;;0.15;0.15;;;;;;;3.79;72.51;99434.53;5099330;28;20095;-84
2023/03/09 02:24:16;;;;;;;0.13;0.13;;;;;;;3.82;71.64;99431.88;5058296;28;20403;-84
2023/03/09 02:27:02;;;;;;;0.20;0.20;;;;;;;3.84;72.14;99435.34;5046044;28;20060;-85
2023/03/09 02:29:30;;;;;;;0.10;0.10;;;;;;;3.78;72.14;99427.56;5054961;28;20512;-83
2023/03/09 02:31:56;;;;;;;0.20;0.20;;;;;;;3.78;71.86;99426.72;5058489;28;20439;-84
2023/03/09 02:34:23;;;;;;;0.10;0.10;;;;;;;3.78;72.06;99443.28;5052693;28;20064;-85
2023/03/09 02:36:49;;;;;;;0.20;0.20;;;;;;;3.77;72.07;99438.94;5057324;28;20060;-85
2023/03/09 02:39:28;;;;;;;0.20;0.20;;;;;;;3.80;71.93;99449.38;5051499;28;20026;-85
2023/03/09 02:41:57;;;;;;;0.20;0.20;;;;;;;3.77;71.72;99469.53;5046466;28;20052;-84
2023/03/09 02:44:25;;;;;;;0.20;0.20;;;;;;;3.77;71.84;99467.75;5054135;28;20048;-85
2023/03/09 02:46:51;;;;;;;0.20;0.20;;;;;;;3.79;72.04;99468.59;5057174;28;20020;-85
2023/03/09 02:49:17;;;;;;;0.20;0.20;;;;;;;3.83;72.19;99456.34;5050826;28;20017;-84
2023/03/09 02:51:44;;;;;;;0.10;0.10;;;;;;;3.81;71.72;99443.22;5053283;28;20037;-84
2023/03/09 02:54:10;;;;;;;0.68;0.68;;;;;;;3.81;71.61;99443.22;5050801;28;20021;-86
2023/03/09 02:56:36;;;;;;;0.10;0.10;;;;;;;3.78;71.69;99461.63;5049206;28;20033;-86
2023/03/09 02:59:02;;;;;;;0.17;0.17;;;;;;;3.79;72.03;99463.38;5051379;28;20037;-86
2023/03/09 03:01:29;;;;;;;0.13;0.13;;;;;;;3.80;71.61;99457.25;5054310;28;20037;-84
2023/03/09 03:03:55;;;;;;;0.10;0.10;;;;;;;3.76;71.77;99463.41;5054831;28;20069;-85
2023/03/09 03:06:21;;;;;;;1.45;1.08;;;;;;;3.78;71.97;99469.50;5056428;28;20048;-84
2023/03/09 03:08:47;;;;;;;0.20;0.20;;;;;;;3.78;72.03;99481.72;5056144;28;20041;-85
2023/03/09 03:11:13;;;;;;;0.20;0.20;;;;;;;3.78;71.67;99479.97;5053706;28;20025;-85
2023/03/09 03:13:39;;;;;;;0.63;0.52;;;;;;;3.70;71.64;99468.72;5055125;28;20116;-85
2023/03/09 03:16:06;;;;;;;0.20;0.20;;;;;;;3.73;71.90;99473.94;5050456;28;20089;-85
2023/03/09 03:18:32;;;;;;;0.82;0.82;;;;;;;3.75;71.92;99474.78;5048761;28;20029;-85
2023/03/09 03:20:58;;;;;;;0.20;0.20;;;;;;;3.75;71.83;99469.53;5058501;28;20669;-84
2023/03/09 03:23:25;;;;;;;0.10;0.10;;;;;;;3.76;71.94;99479.13;5049520;28;20028;-85
2023/03/09 03:25:51;;;;;;;0.15;0.15;;;;;;;3.75;72.11;99482.66;5053780;28;20033;-84
2023/03/09 03:28:18;;;;;;;0.20;0.20;;;;;;;3.74;71.93;99475.66;5050035;28;20037;-84
2023/03/09 03:30:50;;;;;;;0.20;0.20;;;;;;;3.78;71.81;99484.34;5057214;28;20094;-84
2023/03/09 03:33:17;;;;;;;0.20;0.20;;;;;;;3.74;72.14;99486.16;5040796;28;20026;-84
2023/03/09 03:35:43;;;;;;;0.20;0.20;;;;;;;3.72;72.02;99493.16;5035783;28;20085;-85
2023/03/09 03:38:09;;;;;;;0.20;0.20;;;;;;;3.69;71.59;99501.06;5037534;28;20484;-83
2023/03/09 03:40:35;;;;;;;0.10;0.10;;;;;;;3.69;71.63;99514.16;5043606;28;20060;-84
2023/03/09 03:43:01;;;;;;;0.22;0.22;;;;;;;3.70;71.97;99510.63;5045414;28;20520;-83
2023/03/09 03:45:27;;;;;;;2.25;2.05;;;;;;;3.73;72.14;99505.38;5031588;28;20060;-84
2023/03/09 03:47:54;;;;;;;0.20;0.20;;;;;;;3.73;72.21;99506.22;5022504;28;20033;-84
2023/03/09 03:50:20;;;;;;;0.20;0.20;;;;;;;3.67;71.60;99495.81;5035681;28;20488;-84
2023/03/09 03:52:46;;;;;;;0.10;0.10;;;;;;;3.62;71.48;99500.25;5038376;28;20044;-85
2023/03/09 03:55:12;;;;;;;0.20;0.20;;;;;;;3.63;71.65;99504.63;5031289;28;20150;-84
2023/03/09 03:57:38;;;;;;;0.20;0.20;;;;;;;3.63;72.10;99519.47;5035720;28;20087;-85
2023/03/09 04:00:10;;;;;;;0.52;0.52;;;;;;;3.63;71.59;99532.59;5037902;28;20033;-85
2023/03/09 04:02:37;;;;;;;0.10;0.10;;;;;;;3.67;71.99;99542.97;5027891;28;20032;-85
2023/03/09 04:05:04;;;;;;;0.10;0.10;;;;;;;3.69;72.03;99545.59;5034794;28;20409;-85
2023/03/09 04:07:30;;;;;;;0.20;0.20;;;;;;;3.69;71.83;99563.94;5031270;28;20025;-84
2023/03/09 04:09:56;;;;;;;0.20;0.20;;;;;;;3.71;72.06;99559.53;5032140;28;20465;-84
2023/03/09 04:12:22;;;;;;;0.40;0.40;;;;;;;3.72;72.21;99569.13;5026042;28;20485;-85
2023/03/09 04:14:48;;;;;;;0.10;0.10;;;;;;;3.74;71.87;99575.22;5033349;28;20056;-85
2023/03/09 04:17:15;;;;;;;0.50;0.50;;;;;;;3.78;72.11;99576.06;5036044;28;20033;-85
2023/03/09 04:19:41;;;;;;;0.20;0.20;;;;;;;3.80;71.88;99575.16;5031202;28;20250;-85
2023/03/09 04:22:08;;;;;;;0.10;0.10;;;;;;;3.84;72.01;99582.06;5028757;28;20029;-84
2023/03/09 04:24:35;;;;;;;0.20;0.20;;;;;;;3.87;71.87;99596.88;5026657;28;20046;-84
2023/03/09 04:27:01;;;;;;;0.15;0.15;;;;;;;3.87;71.77;99591.66;5035395;28;20033;-85
2023/03/09 04:29:27;;;;;;;0.10;0.10;;;;;;;3.91;72.12;99595.94;5033517;28;20124;-85
2023/03/09 04:31:53;;;;;;;0.20;0.20;;;;;;;3.91;71.68;99597.72;5026565;28;20029;-85
2023/03/09 04:34:19;;;;;;;0.13;0.13;;;;;;;3.88;71.81;99594.22;5039145;28;20076;-85
2023/03/09 04:36:45;;;;;;;0.10;0.10;;;;;;;3.88;71.67;99591.63;5034139;28;20025;-84
2023/03/09 04:39:11;;;;;;;0.15;0.15;;;;;;;3.87;71.61;99597.75;5027256;28;20029;-85
2023/03/09 04:41:37;;;;;;;0.10;0.10;;;;;;;3.87;71.61;99608.22;5026698;28;20033;-84
2023/03/09 04:44:04;;;;;;;0.52;0.52;;;;;;;3.88;71.40;99598.63;5036972;28;20041;-85
2023/03/09 04:46:30;;;;;;;0.30;0.30;;;;;;;3.88;71.77;99603.88;5031767;28;20056;-85
2023/03/09 04:48:56;;;;;;;0.17;0.17;;;;;;;3.87;71.99;99610.84;5031662;28;20033;-85
2023/03/09 04:51:22;;;;;;;0.20;0.20;;;;;;;3.88;71.60;99609.97;5035057;28;20037;-85
2023/03/09 04:53:48;;;;;;;0.20;0.20;;;;;;;3.89;71.58;99606.47;5036752;28;20028;-84
2023/03/09 04:56:14;;;;;;;0.17;0.17;;;;;;;3.88;71.37;99609.97;5035473;28;20112;-84
2023/03/09 04:58:40;;;;;;;0.65;0.65;;;;;;;3.89;71.44;99627.41;5043142;28;20040;-83
2023/03/09 05:01:06;;;;;;;1.52;1.40;;;;;;;3.91;72.00;99629.16;5039577;28;20081;-84
2023/03/09 05:03:33;;;;;;;0.20;0.20;;;;;;;3.93;71.92;99627.41;5037894;28;20100;-85
2023/03/09 05:05:59;;;;;;;0.20;0.20;;;;;;;3.95;71.46;99626.50;5036182;28;20033;-84
2023/03/09 05:08:25;;;;;;;0.22;0.22;;;;;;;3.95;71.89;99621.25;5035792;28;20032;-84
2023/03/09 05:10:51;;;;;;;0.20;0.20;;;;;;;3.96;71.61;99623.00;5033872;28;20036;-84
2023/03/09 05:13:17;;;;;;;0.85;0.85;;;;;;;3.95;71.59;99628.22;5036284;28;20159;-84
2023/03/09 05:15:43;;;;;;;0.10;0.10;;;;;;;3.91;71.69;99616.91;5030463;28;20124;-84
2023/03/09 05:18:11;;;;;;;0.17;0.17;;;;;;;3.90;71.40;99623.06;5035629;28;20032;-84
2023/03/09 05:20:38;;;;;;;0.20;0.20;;;;;;;3.86;71.68;99614.38;5037769;28;20021;-85
2023/03/09 05:23:04;;;;;;;0.10;0.10;;;;;;;3.83;71.35;99622.25;5031074;28;20041;-84
2023/03/09 05:25:31;;;;;;;1.42;0.82;;;;;;;3.81;71.12;99608.28;5033098;28;20056;-85
2023/03/09 05:27:57;;;;;;;0.30;0.30;;;;;;;3.81;71.51;99608.28;5034388;28;20026;-84
2023/03/09 05:30:24;;;;;;;0.25;0.25;;;;;;;3.80;71.58;99619.69;5036199;28;20042;-83
2023/03/09 05:32:50;;;;;;;0.20;0.20;;;;;;;3.79;71.22;99615.31;5033007;28;20053;-83
2023/03/09 05:35:18;;;;;;;0.20;0.20;;;;;;;3.79;71.34;99620.56;5032363;28;20029;-84
2023/03/09 05:37:44;;;;;;;0.10;0.10;;;;;;;3.75;71.37;99634.59;5034937;28;20108;-84
2023/03/09 05:40:12;;;;;;;0.10;0.10;;;;;;;3.80;71.43;99647.63;5036302;28;20026;-84
2023/03/09 05:42:39;;;;;;;0.10;0.10;;;;;;;3.82;71.92;99635.38;5036864;28;20540;-85
2023/03/09 05:45:05;;;;;;;1.17;1.08;;;;;;;3.84;71.44;99644.97;5036223;28;20037;-85
2023/03/09 05:47:32;;;;;;;0.20;0.20;;;;;;;3.86;71.64;99651.06;5036210;28;20075;-84
2023/03/09 05:49:58;;;;;;;0.10;0.10;;;;;;;3.89;71.58;99658.88;5031319;28;20030;-84
2023/03/09 05:52:24;;;;;;;0.13;0.13;;;;;;;3.92;71.56;99663.19;5035074;28;20026;-84
2023/03/09 05:54:50;;;;;;;0.10;0.10;;;;;;;3.96;72.01;99666.66;5033602;28;20049;-84
2023/03/09 05:57:16;;;;;;;0.30;0.30;;;;;;;3.98;71.99;99668.38;5034877;28;20034;-86
2023/03/09 05:59:43;;;;;;;0.20;0.20;;;;;;;3.99;72.03;99656.16;5044670;28;20040;-86
2023/03/09 06:02:09;;;;;;;0.10;0.10;;;;;;;3.98;71.86;99657.88;5036025;28;20038;-85
2023/03/09 06:04:35;;;;;;;0.10;0.10;;;;;;;3.99;71.98;99657.00;5033378;28;20026;-85
2023/03/09 06:07:02;;;;;;;0.82;0.82;;;;;;;4.01;71.28;99662.22;5035033;28;20055;-85
2023/03/09 06:09:28;;;;;;;0.20;0.20;;;;;;;4.02;71.56;99670.06;5028643;28;20029;-86
2023/03/09 06:11:54;;;;;;;0.20;0.20;;;;;;;4.02;71.78;99670.06;5042151;28;20025;-85
2023/03/09 06:14:20;;;;;;;0.20;0.20;;;;;;;4.03;71.68;99679.66;5027486;28;20421;-85
2023/03/09 06:16:46;;;;;;;0.20;0.20;;;;;;;4.04;71.55;99678.78;5041273;28;20038;-85
2023/03/09 06:19:12;;;;;;;0.30;0.30;;;;;;;4.03;71.48;99689.28;5036548;28;20033;-85
2023/03/09 06:21:38;;;;;;;0.20;0.20;;;;;;;4.03;71.37;99697.16;5030875;28;20037;-85
2023/03/09 06:24:05;;;;;;;0.68;0.68;;;;;;;4.03;71.10;99713.75;5035875;28;20037;-84
2023/03/09 06:26:31;;;;;;;0.10;0.10;;;;;;;4.02;71.10;99714.63;5022705;28;20037;-87
2023/03/09 06:28:57;;;;;;;0.20;0.20;;;;;;;4.02;71.22;99709.38;5026473;28;20109;-84
2023/03/09 06:31:24;;;;;;;0.10;0.10;;;;;;;4.02;71.16;99712.00;5029763;28;20029;-83
2023/03/09 06:33:50;;;;;;;0.13;0.13;;;;;;;4.02;71.04;99729.50;5024594;28;20033;-83
2023/03/09 06:36:17;;;;;;;1.13;0.68;;;;;;;4.03;71.31;99728.59;5029010;28;20053;-85
2023/03/09 06:38:44;;;;;;;0.10;0.10;;;;;;;4.02;71.50;99727.72;5027319;28;20037;-84
2023/03/09 06:41:12;;;;;;;0.10;0.10;;;;;;;4.02;71.24;99738.22;5029473;28;20025;-86
2023/03/09 06:43:39;;;;;;;0.13;0.13;;;;;;;4.03;71.08;99737.31;5025665;28;20444;-85
2023/03/09 06:46:06;;;;;;;0.60;0.60;;;;;;;4.04;71.19;99738.22;5035730;28;20033;-86
2023/03/09 06:48:32;;;;;;;2.42;0.85;;;;;;;4.07;71.25;99743.41;5031938;28;20037;-86
2023/03/09 06:50:58;;;;;;;0.28;0.28;;;;;;;4.07;70.91;99745.16;5022487;28;20045;-85
2023/03/09 06:53:24;;;;;;;0.15;0.15;;;;;;;4.07;71.15;99746.03;5028988;28;20071;-86
2023/03/09 06:55:51;;;;;;;0.10;0.10;;;;;;;4.08;71.20;99749.53;5022981;28;20077;-83
2023/03/09 06:58:17;;;;;;;0.10;0.10;;;;;;;4.10;71.51;99760.84;5033292;28;20034;-86
2023/03/09 07:00:46;;;;;;;0.10;0.10;;;;;;;4.11;71.35;99767.84;5028899;28;20032;-85
2023/03/09 07:03:16;;;;;;;0.20;0.20;;;;;;;4.16;71.34;99782.66;5027878;28;20031;-83
2023/03/09 07:05:42;;;;;;;0.30;0.30;;;;;;;4.18;71.24;99780.84;5030647;28;20041;-86
2023/03/09 07:08:08;;;;;;;0.15;0.15;;;;;;;4.24;71.79;99779.03;5033154;28;20056;-86
2023/03/09 07:10:35;;;;;;;0.10;0.10;;;;;;;4.23;71.23;99766.84;5038484;28;20048;-86
2023/03/09 07:13:01;;;;;;;0.10;0.10;;;;;;;4.21;70.89;99767.72;5028796;28;20562;-87
2023/03/09 07:15:27;;;;;;;0.20;0.20;;;;;;;4.23;71.24;99787.81;5024690;28;20045;-86
2023/03/09 07:17:53;;;;;;;1.10;1.10;;;;;;;4.23;70.94;99793.06;5024701;28;20042;-87
2023/03/09 07:20:19;;;;;;;0.20;0.20;;;;;;;4.24;71.06;99810.50;5032444;28;20029;-84
2023/03/09 07:22:45;;;;;;;0.15;0.15;;;;;;;4.24;71.09;99816.66;5028848;28;20481;-85
2023/03/09 07:25:12;;;;;;;0.10;0.10;;;;;;;4.28;71.34;99818.34;5039187;28;20029;-85
2023/03/09 07:27:38;;;;;;;0.77;0.77;;;;;;;4.32;70.96;99806.06;5029478;28;20041;-83
2023/03/09 07:30:04;;;;;;;0.22;0.22;;;;;;;4.37;71.50;99809.50;5022571;28;20026;-84
2023/03/09 07:32:30;;;;;;;0.10;0.10;;;;;;;4.38;71.42;99814.72;5034791;28;20034;-85
2023/03/09 07:34:56;;;;;;;0.20;0.20;;;;;;;4.42;71.45;99830.44;5029694;28;20025;-85
2023/03/09 07:37:22;;;;;;;0.10;0.10;;;;;;;4.44;70.71;99832.16;5027630;28;20049;-85
2023/03/09 07:39:48;;;;;;;0.13;0.13;;;;;;;4.46;70.90;99827.78;5023032;28;20064;-84
2023/03/09 07:42:14;;;;;;;0.65;0.65;;;;;;;4.48;70.82;99833.84;5027987;28;20021;-85
2023/03/09 07:44:41;;;;;;;0.20;0.20;;;;;;;4.53;70.96;99842.53;5023821;28;20038;-85
2023/03/09 07:47:07;;;;;;;0.55;0.55;;;;;;;4.60;71.21;99850.34;5018122;28;20030;-85
2023/03/09 07:49:33;;;;;;;0.50;0.50;;;;;;;4.62;70.95;99833.72;5026205;28;20044;-85
2023/03/09 07:51:59;;;;;;;0.20;0.20;;;;;;;4.62;70.61;99845.94;5035198;28;20041;-85
2023/03/09 07:54:25;;;;;;;0.20;0.20;;;;;;;4.66;70.87;99842.38;5036922;28;20029;-85
2023/03/09 07:56:51;;;;;;;0.10;0.10;;;;;;;4.70;70.66;99846.72;5037634;28;20026;-85
2023/03/09 07:59:19;;;;;;;0.10;0.10;;;;;;;4.77;70.56;99843.16;5037882;28;20018;-85
2023/03/09 08:01:45;;;;;;;0.20;0.20;;;;;;;4.82;70.53;99830.84;5033913;28;20160;-84
2023/03/09 08:04:13;;;;;;;0.20;0.20;;;;;;;4.90;70.54;99848.22;5038189;28;20021;-84
2023/03/09 08:06:39;;;;;;;0.10;0.10;;;;;;;4.96;70.27;99853.41;5039325;28;20037;-85
2023/03/09 08:09:08;;;;;;;0.52;0.52;;;;;;;4.97;70.01;99857.75;5039022;28;20029;-85
2023/03/09 08:11:34;;;;;;;0.13;0.13;;;;;;;5.00;69.82;99868.25;5038614;28;20025;-85
2023/03/09 08:14:00;;;;;;;0.20;0.20;;;;;;;5.05;69.79;99868.16;5032792;28;20036;-85
2023/03/09 08:16:26;;;;;;;0.30;0.30;;;;;;;5.09;69.92;99856.75;5035852;28;20040;-85
2023/03/09 08:18:53;;;;;;;0.10;0.10;;;;;;;5.13;69.41;99855.81;5035724;28;20033;-85
2023/03/09 08:21:19;;;;;;;0.10;0.10;;;;;;;5.18;69.60;99843.47;5034599;28;20112;-84
2023/03/09 08:23:48;;;;;;;0.30;0.30;;;;;;;5.23;69.32;99851.31;5036961;28;20111;-86
2023/03/09 08:26:16;;;;;;;0.20;0.20;;;;;;;5.28;69.78;99860.88;5035837;28;20025;-85
2023/03/09 08:28:43;;;;;;;1.65;1.55;;;;;;;5.33;69.63;99868.66;5037114;28;20036;-84
2023/03/09 08:31:10;;;;;;;0.20;0.20;;;;;;;5.34;69.50;99871.25;5024024;28;20045;-84
2023/03/09 08:33:37;;;;;;;0.10;0.10;;;;;;;5.40;69.98;99869.47;5033219;28;20032;-86
2023/03/09 08:36:20;;;;;;;0.13;0.13;;;;;;;5.46;69.04;99864.97;5038076;28;20037;-85
2023/03/09 08:38:47;;;;;;;1.77;1.25;;;;;;;5.43;68.99;99885.16;5038859;28;20025;-85
2023/03/09 08:41:20;;;;;;;0.85;0.52;;;;;;;5.50;69.07;99892.94;5033616;28;20017;-86
2023/03/09 08:44:12;;;;;;;;;;;;;;;5.59;68.32;99902.44;5036420;28;20156;-86
2023/03/09 08:46:38;;;;;;;0.20;0.20;;;;;;;5.47;68.59;99892.97;5040021;28;19909;-85
2023/03/09 08:49:04;;;;;;;1.55;1.50;;;;;;;5.47;68.53;99897.34;5027586;28;20029;-85
2023/03/09 08:51:30;;;;;;;0.20;0.20;;;;;;;5.49;68.63;99906.09;5033377;28;20034;-86
2023/03/09 08:53:56;;;;;;;0.15;0.15;;;;;;;5.55;68.99;99913.88;5042241;28;20079;-86
2023/03/09 08:56:22;;;;;;;0.20;0.20;;;;;;;5.64;69.25;99913.75;5034419;28;20026;-85
2023/03/09 08:58:48;;;;;;;0.20;0.20;;;;;;;5.72;69.25;99915.41;5035719;28;20061;-85
2023/03/09 09:01:15;;;;;;;0.28;0.28;;;;;;;5.78;69.33;99912.66;5035000;28;20052;-85
2023/03/09 09:03:41;;;;;;;0.38;0.38;;;;;;;5.80;68.58;99900.38;5036455;28;20520;-85
2023/03/09 09:06:13;;;;;;;0.22;0.22;;;;;;;5.83;68.33;99922.25;5029776;28;20068;-85
2023/03/09 09:08:40;;;;;;;0.13;0.13;;;;;;;5.82;68.05;99925.75;5029579;28;20395;-86
2023/03/09 09:11:08;;;;;;;0.50;0.32;;;;;;;5.80;67.84;99931.94;5037432;28;20554;-84
2023/03/09 09:13:34;;;;;;;0.50;0.50;;;;;;;5.77;67.22;99924.97;5038241;28;20488;-85
2023/03/09 09:16:01;;;;;;;0.20;0.20;;;;;;;5.79;67.83;99923.16;5033378;28;20030;-85
2023/03/09 09:18:27;;;;;;;2.05;0.63;;;;;;;5.81;67.62;99923.16;5030350;28;20036;-87
2023/03/09 09:20:53;;;;;;;0.10;0.10;;;;;;;5.82;67.59;99915.25;5028628;28;20048;-86
2023/03/09 09:23:19;;;;;;;0.28;0.28;;;;;;;5.79;67.34;99912.63;5028216;28;20072;-85
2023/03/09 09:25:45;;;;;;;0.20;0.20;;;;;;;5.79;67.90;99917.03;5025736;28;20041;-85
2023/03/09 09:28:11;;;;;;;0.52;0.52;;;;;;;5.77;67.62;99917.06;5031067;28;20040;-85
2023/03/09 09:30:37;;;;;;;0.30;0.30;;;;;;;5.76;67.62;99923.22;5034568;28;20026;-86
2023/03/09 09:33:04;;;;;;;0.30;0.30;;;;;;;5.73;68.06;99933.78;5035763;28;20032;-86
2023/03/09 09:35:31;;;;;;;1.80;1.70;;;;;;;5.70;68.00;99940.84;5034976;28;20060;-86
2023/03/09 09:37:59;;;;;;;0.30;0.30;;;;;;;5.69;67.72;99953.09;5036919;28;20030;-85
2023/03/09 09:40:25;;;;;;;0.38;0.38;;;;;;;5.73;68.23;99957.44;5028115;28;20461;-84
2023/03/09 09:42:53;;;;;;;0.20;0.20;;;;;;;5.77;68.17;99951.25;5039779;28;20108;-85
2023/03/09 09:45:28;;;;;;;1.20;1.20;;;;;;;5.83;67.57;99955.53;5027713;28;20076;-86
2023/03/09 09:48:02;;;;;;;0.10;0.10;;;;;;;5.88;67.77;99955.47;5035787;28;20032;-85
2023/03/09 09:50:41;;;;;;;0.13;0.13;;;;;;;5.93;67.74;99953.63;5028108;28;20040;-85
2023/03/09 09:53:20;;;;;;;0.20;0.20;;;;;;;5.94;67.67;99955.38;5028684;28;20014;-85
2023/03/09 09:55:49;;;;;;;1.45;1.08;;;;;;;5.97;68.10;99942.19;5017802;28;20025;-85
2023/03/09 09:58:36;;;;;;;0.75;0.75;;;;;;;6.07;67.94;99946.44;5021016;28;20040;-84
2023/03/09 10:01:16;;;;;;;0.55;0.55;;;;;;;6.07;67.96;99946.44;5029941;28;20038;-87
2023/03/09 10:03:46;;;;;;;0.10;0.10;;;;;;;6.09;67.41;99936.78;5024024;28;20033;-85
2023/03/09 10:06:18;;;;;;;0.20;0.20;;;;;;;6.14;67.06;99940.19;5029830;28;20029;-84
2023/03/09 10:09:08;;;;;;;0.95;0.95;;;;;;;6.11;67.22;99937.59;5031164;28;20060;-86
2023/03/09 10:11:41;;;;;;;0.20;0.20;;;;;;;6.06;66.79;99939.44;5032026;28;20102;-85
2023/03/09 10:17:37;;;;;;;0.43;0.43;;;;;;;6.15;67.42;99923.50;5056930;28;20372;-82
2023/03/09 10:22:59;;;;;;;1.73;1.63;;;;;;;6.17;67.55;99922.59;5062232;28;20428;-83
2023/03/09 10:25:31;;;;;;;0.10;0.10;;;;;;;6.23;67.55;99925.13;5056369;28;20037;-81
2023/03/09 10:28:11;;;;;;;0.20;0.20;;;;;;;6.28;66.79;99925.91;5065710;28;20044;-82
2023/03/09 10:30:53;;;;;;;1.05;1.05;;;;;;;6.31;67.09;99925.88;5057431;28;20041;-83
2023/03/09 10:33:30;;;;;;;2.20;2.00;;;;;;;6.31;67.01;99928.50;5058518;28;20417;-82
2023/03/09 10:36:05;;;;;;;0.55;0.55;;;;;;;6.28;66.70;99931.19;5062798;28;20498;-83
2023/03/09 10:38:34;;;;;;;0.05;0.05;;;;;;;6.28;67.36;99931.19;5051352;28;20151;-82
2023/03/09 10:41:00;;;;;;;0.10;0.10;;;;;;;6.40;67.60;99943.28;5053401;28;20442;-81
2023/03/09 10:43:29;;;;;;;1.10;1.10;;;;;;;6.43;67.84;99938.81;5062025;28;20022;-82
2023/03/09 10:46:16;;;;;;;0.20;0.20;;;;;;;6.42;67.57;99934.47;5061994;28;20033;-83
2023/03/09 10:48:43;;;;;;;0.10;0.10;;;;;;;6.41;67.70;99943.25;5052381;28;20486;-83
2023/03/09 10:54:21;;;;;;;0.75;0.75;;;;;;;6.46;67.80;99948.44;5106105;27;20400;-82
2023/03/09 10:56:48;;;;;;;0.10;0.10;;;;;;;6.34;67.15;99952.13;5088031;28;20024;-82
2023/03/09 10:59:18;;;;;;;0.20;0.20;;;;;;;6.30;66.89;99958.34;5095778;28;20048;-83
2023/03/09 11:01:47;;;;;;;0.57;0.57;;;;;;;6.21;66.75;99958.50;5093339;28;20028;-83
2023/03/09 11:04:35;;;;;;;1.45;1.35;;;;;;;6.25;67.08;99965.44;5088494;28;20358;-83
2023/03/09 11:07:20;;;;;;;2.50;0.73;;;;;;;6.16;66.89;99966.47;5083574;28;20024;-84
2023/03/09 11:09:48;;;;;;;0.17;0.17;;;;;;;6.06;67.64;99965.75;5091613;28;20017;-83
2023/03/09 11:15:00;;;;;;;1.27;0.52;;;;;;;6.00;67.69;99957.94;5068379;28;20383;-83
2023/03/09 11:20:31;;;;;;;0.75;0.75;;;;;;;6.03;68.18;99960.53;5171110;27;20329;-84
2023/03/09 11:26:01;;;;;;;0.20;0.20;;;;;;;5.97;68.06;99947.47;5117708;27;1201532;-84
2023/03/09 11:28:50;;;;;;;0.20;0.20;;;;;;;5.92;68.34;99951.88;5104306;28;20035;-84
2023/03/09 11:31:21;;;;;;;1.85;1.75;;;;;;;5.87;68.36;99953.72;5106974;28;20049;-83
2023/03/09 11:33:50;;;;;;;0.82;0.82;;;;;;;5.81;68.41;99952.94;5105463;28;20045;-84
2023/03/09 11:36:22;;;;;;;0.20;0.20;;;;;;;5.76;68.78;99954.75;5107564;28;20502;-84
2023/03/09 11:38:48;;;;;;;1.17;1.17;;;;;;;5.77;68.81;99953.00;5101883;28;20060;-84
2023/03/09 11:41:37;;;;;;;0.55;0.55;;;;;;;5.88;68.94;99950.22;5102452;28;20050;-84
2023/03/09 11:44:12;;;;;;;0.10;0.10;;;;;;;5.89;68.78;99942.28;5113656;28;20023;-84
2023/03/09 11:46:39;;;;;;;3.38;0.85;;;;;;;5.86;69.15;99944.97;5113282;28;20035;-83
2023/03/09 11:49:12;;;;;;;0.20;0.20;;;;;;;5.82;68.73;99944.16;5099942;28;20046;-83
2023/03/09 11:51:45;;;;;;;0.20;0.20;;;;;;;5.75;68.59;99939.88;5107224;28;20093;-82
2023/03/09 11:54:38;;;;;;;0.93;0.93;;;;;;;5.77;68.78;99942.47;5116041;28;20034;-85
2023/03/09 11:57:10;;;;;;;;;;;;;;;5.82;68.59;99945.94;5108482;28;20043;-83
2023/03/09 12:02:52;;;;;;;0.40;0.40;;;;;;;5.71;69.21;99929.41;5108283;27;20407;-84
2023/03/09 12:05:20;;;;;;;0.20;0.20;;;;;;;5.69;69.66;99924.19;5040454;28;20558;-84
2023/03/09 12:07:58;;;;;;;0.73;0.73;;;;;;;5.69;69.24;99924.19;5044981;28;20434;-84
2023/03/09 12:10:50;;;;;;;0.28;0.28;;;;;;;5.59;68.97;99923.44;5054806;28;20067;-85
2023/03/09 12:13:39;;;;;;;0.43;0.43;;;;;;;5.48;68.94;99926.25;5047295;28;20041;-83
2023/03/09 12:16:14;;;;;;;0.10;0.10;;;;;;;5.38;68.91;99919.38;5053103;28;20032;-82